Time;durP1;ratioP1;P1;durP2;ratioP2;P2;SDS_P1;SDS_P2;PMS_P1;PMS_P2;Temp;Humidity;BMP_temperature;BMP_pressure;BME280_temperature;BME280_humidity;BME280_pressure;Samples;Min_cycle;Max_cycle;Signal;HPM_P1;HPM_P2
2022/09/02 00:00:45;;;;;;;10.23;3.35;;;;;;;;;;5042257;28;20044;-74
2022/09/02 00:03:11;;;;;;;8.25;4.18;;;;;;;;;;5026909;28;20017;-74
2022/09/02 00:05:37;;;;;;;7.32;3.10;;;;;;;;;;5040534;28;20124;-74
2022/09/02 00:08:04;;;;;;;9.23;4.00;;;;;;;;;;5022647;28;20592;-74
2022/09/02 00:10:31;;;;;;;9.32;3.97;;;;;;;;;;5038251;28;20177;-74
2022/09/02 00:12:57;;;;;;;7.40;3.72;;;;;;;;;;5037204;28;20017;-74
2022/09/02 00:15:23;;;;;;;8.45;3.70;;;;;;;;;;5045305;28;20501;-74
2022/09/02 00:17:49;;;;;;;8.35;3.85;;;;;;;;;;5039414;28;20067;-75
2022/09/02 00:20:17;;;;;;;6.32;3.50;;;;;;;;;;5041183;28;20021;-73
2022/09/02 00:22:44;;;;;;;6.80;3.80;;;;;;;;;;5040391;28;20013;-75
2022/09/02 00:25:10;;;;;;;7.43;3.42;;;;;;;;;;5041522;28;20037;-74
2022/09/02 00:27:37;;;;;;;6.55;3.65;;;;;;;;;;5045404;28;20021;-74
2022/09/02 00:30:04;;;;;;;6.88;3.78;;;;;;;;;;5042928;28;20044;-74
2022/09/02 00:32:30;;;;;;;6.90;3.65;;;;;;;;;;5042346;28;20045;-80
2022/09/02 00:34:57;;;;;;;9.50;3.90;;;;;;;;;;5039435;28;20113;-79
2022/09/02 00:37:24;;;;;;;10.68;4.07;;;;;;;;;;5041212;28;20009;-74
2022/09/02 00:39:52;;;;;;;9.77;3.75;;;;;;;;;;5038758;28;20017;-74
2022/09/02 00:42:19;;;;;;;8.93;3.65;;;;;;;;;;5023847;28;20409;-74
2022/09/02 00:44:45;;;;;;;11.20;4.03;;;;;;;;;;5024551;28;20119;-76
2022/09/02 00:47:11;;;;;;;7.70;3.40;;;;;;;;;;5039875;28;20105;-74
2022/09/02 00:49:39;;;;;;;7.28;3.70;;;;;;;;;;5039469;28;20028;-74
2022/09/02 00:52:12;;;;;;;10.90;3.60;;;;;;;;;;5045000;28;20028;-74
2022/09/02 00:54:53;;;;;;;10.52;3.47;;;;;;;;;;5022242;28;20047;-83
2022/09/02 00:57:22;;;;;;;10.80;3.40;;;;;;;;;;5043049;28;20130;-74
2022/09/02 00:59:48;;;;;;;11.63;4.05;;;;;;;;;;5042103;28;20542;-74
2022/09/02 01:02:14;;;;;;;7.00;3.75;;;;;;;;;;5021122;28;20057;-74
2022/09/02 01:04:42;;;;;;;13.88;3.97;;;;;;;;;;5042190;28;20050;-74
2022/09/02 01:07:08;;;;;;;6.20;3.42;;;;;;;;;;5037604;28;20460;-74
2022/09/02 01:09:35;;;;;;;12.93;4.40;;;;;;;;;;5044475;28;20115;-75
2022/09/02 01:12:02;;;;;;;7.35;3.83;;;;;;;;;;5039038;28;20025;-74
2022/09/02 01:14:29;;;;;;;9.80;3.75;;;;;;;;;;5042214;28;20017;-74
2022/09/02 01:16:58;;;;;;;8.63;4.00;;;;;;;;;;5039260;28;20031;-74
2022/09/02 01:19:32;;;;;;;8.20;3.78;;;;;;;;;;5041623;28;20156;-74
2022/09/02 01:21:58;;;;;;;12.52;3.83;;;;;;;;;;5038581;28;20020;-74
2022/09/02 01:24:31;;;;;;;7.40;3.75;;;;;;;;;;5041702;28;20379;-75
2022/09/02 01:26:58;;;;;;;6.55;3.47;;;;;;;;;;5044225;28;20055;-74
2022/09/02 01:29:25;;;;;;;7.85;3.35;;;;;;;;;;5035159;28;20392;-77
2022/09/02 01:31:51;;;;;;;7.32;3.97;;;;;;;;;;5040282;28;20029;-74
2022/09/02 01:34:18;;;;;;;7.40;3.70;;;;;;;;;;5039968;28;20025;-77
2022/09/02 01:36:44;;;;;;;8.75;3.42;;;;;;;;;;5024929;28;20187;-74
2022/09/02 01:39:12;;;;;;;11.80;3.83;;;;;;;;;;5040014;28;20033;-74
2022/09/02 01:41:39;;;;;;;6.75;3.58;;;;;;;;;;5042278;28;20183;-82
2022/09/02 01:44:05;;;;;;;10.90;3.63;;;;;;;;;;5035674;28;20104;-78
2022/09/02 01:46:33;;;;;;;6.32;3.60;;;;;;;;;;5022215;28;20041;-74
2022/09/02 01:48:59;;;;;;;8.27;4.65;;;;;;;;;;5043824;28;20100;-74
2022/09/02 01:51:25;;;;;;;11.68;4.40;;;;;;;;;;5043825;28;20530;-74
2022/09/02 01:53:51;;;;;;;8.25;3.75;;;;;;;;;;5042113;28;20108;-75
2022/09/02 01:56:17;;;;;;;13.85;3.80;;;;;;;;;;5038784;28;20108;-74
2022/09/02 01:58:43;;;;;;;12.32;4.18;;;;;;;;;;5041874;28;20021;-74
2022/09/02 02:01:10;;;;;;;7.80;3.95;;;;;;;;;;5035722;28;20396;-74
2022/09/02 02:03:37;;;;;;;13.38;4.22;;;;;;;;;;5043081;28;20553;-74
2022/09/02 02:06:10;;;;;;;13.00;4.05;;;;;;;;;;5039600;28;20120;-74
2022/09/02 02:08:37;;;;;;;14.02;4.07;;;;;;;;;;5043007;28;20028;-74
2022/09/02 02:11:03;;;;;;;9.40;4.18;;;;;;;;;;5044686;28;20054;-74
2022/09/02 02:13:30;;;;;;;11.05;4.55;;;;;;;;;;5039689;28;20013;-74
2022/09/02 02:15:56;;;;;;;9.50;4.00;;;;;;;;;;5040933;28;20372;-81
2022/09/02 02:18:22;;;;;;;6.75;3.85;;;;;;;;;;5044188;28;20178;-75
2022/09/02 02:20:48;;;;;;;10.68;4.28;;;;;;;;;;5022393;28;20028;-74
2022/09/02 02:23:16;;;;;;;9.45;3.63;;;;;;;;;;5039509;28;20017;-74
2022/09/02 02:25:42;;;;;;;9.60;3.92;;;;;;;;;;5037894;28;20040;-78
2022/09/02 02:28:08;;;;;;;8.25;3.40;;;;;;;;;;5043534;28;20104;-74
2022/09/02 02:30:35;;;;;;;10.30;4.15;;;;;;;;;;5039332;28;20119;-74
2022/09/02 02:33:01;;;;;;;7.90;3.75;;;;;;;;;;5041046;28;20120;-74
2022/09/02 02:35:27;;;;;;;10.45;4.07;;;;;;;;;;5045470;28;20100;-74
2022/09/02 02:37:54;;;;;;;9.35;4.05;;;;;;;;;;5048152;28;20502;-74
2022/09/02 02:40:22;;;;;;;10.65;3.80;;;;;;;;;;5044329;28;20051;-75
2022/09/02 02:42:49;;;;;;;10.38;3.83;;;;;;;;;;5042571;28;20033;-77
2022/09/02 02:45:15;;;;;;;14.43;4.13;;;;;;;;;;5047395;28;20052;-74
2022/09/02 02:47:44;;;;;;;10.02;3.65;;;;;;;;;;5041333;28;20029;-74
2022/09/02 02:50:12;;;;;;;13.98;4.25;;;;;;;;;;5046504;28;20124;-74
2022/09/02 02:52:39;;;;;;;9.30;3.75;;;;;;;;;;5044654;28;20104;-74
2022/09/02 02:55:06;;;;;;;7.78;3.75;;;;;;;;;;5027976;28;20079;-76
2022/09/02 02:57:33;;;;;;;11.98;4.55;;;;;;;;;;5043879;28;20023;-74
2022/09/02 03:00:12;;;;;;;9.13;3.97;;;;;;;;;;5043435;28;20020;-75
2022/09/02 03:02:38;;;;;;;9.68;3.55;;;;;;;;;;5044309;28;20029;-74
2022/09/02 03:05:05;;;;;;;8.02;3.88;;;;;;;;;;5039028;28;20623;-74
2022/09/02 03:07:31;;;;;;;9.73;4.10;;;;;;;;;;5042386;28;20053;-79
2022/09/02 03:09:57;;;;;;;13.35;4.03;;;;;;;;;;5043542;28;20472;-74
2022/09/02 03:12:24;;;;;;;9.85;3.95;;;;;;;;;;5042995;28;20047;-77
2022/09/02 03:14:51;;;;;;;10.80;3.88;;;;;;;;;;5027746;28;20036;-74
2022/09/02 03:17:17;;;;;;;8.25;3.53;;;;;;;;;;5038986;28;20025;-74
2022/09/02 03:19:44;;;;;;;11.18;4.07;;;;;;;;;;5021997;28;20053;-74
2022/09/02 03:22:10;;;;;;;7.20;3.85;;;;;;;;;;5035144;28;20029;-74
2022/09/02 03:24:39;;;;;;;7.43;3.70;;;;;;;;;;5041508;28;20053;-74
2022/09/02 03:27:05;;;;;;;9.38;3.50;;;;;;;;;;5040130;28;20040;-74
2022/09/02 03:29:31;;;;;;;9.32;3.50;;;;;;;;;;5039859;28;20152;-74
2022/09/02 03:31:57;;;;;;;7.65;3.47;;;;;;;;;;5039846;28;20542;-74
2022/09/02 03:34:24;;;;;;;12.00;3.78;;;;;;;;;;5034824;28;20473;-75
2022/09/02 03:36:50;;;;;;;8.20;3.80;;;;;;;;;;5038110;28;20363;-73
2022/09/02 03:39:16;;;;;;;13.88;4.20;;;;;;;;;;5020428;28;20028;-75
2022/09/02 03:41:43;;;;;;;8.35;3.88;;;;;;;;;;5040266;28;20439;-74
2022/09/02 03:44:10;;;;;;;10.32;3.88;;;;;;;;;;5022723;28;20143;-74
2022/09/02 03:46:36;;;;;;;8.23;3.72;;;;;;;;;;5041647;28;20552;-74
2022/09/02 03:49:03;;;;;;;12.13;4.07;;;;;;;;;;5042228;28;20055;-74
2022/09/02 03:51:30;;;;;;;9.00;3.67;;;;;;;;;;5037492;28;20051;-77
2022/09/02 03:53:56;;;;;;;10.77;4.03;;;;;;;;;;5021722;28;20025;-74
2022/09/02 03:56:24;;;;;;;9.82;3.55;;;;;;;;;;5043574;28;20250;-75
2022/09/02 03:58:51;;;;;;;6.35;3.65;;;;;;;;;;5042166;28;20492;-75
2022/09/02 04:01:19;;;;;;;9.65;4.18;;;;;;;;;;5040462;28;20071;-74
2022/09/02 04:03:45;;;;;;;9.45;3.67;;;;;;;;;;5034737;28;20029;-74
2022/09/02 04:06:13;;;;;;;11.02;4.00;;;;;;;;;;5042236;28;20106;-74
2022/09/02 04:08:39;;;;;;;12.35;4.32;;;;;;;;;;5039312;28;20100;-75
2022/09/02 04:11:10;;;;;;;9.20;3.78;;;;;;;;;;5036826;28;20166;-74
2022/09/02 04:13:36;;;;;;;9.43;3.55;;;;;;;;;;5017885;28;20022;-74
2022/09/02 04:16:06;;;;;;;11.45;4.30;;;;;;;;;;5039111;28;20048;-75
2022/09/02 04:18:32;;;;;;;7.72;3.53;;;;;;;;;;5039162;28;20157;-82
2022/09/02 04:20:59;;;;;;;9.30;3.90;;;;;;;;;;5040180;28;20548;-74
2022/09/02 04:23:27;;;;;;;11.90;4.18;;;;;;;;;;5039616;28;20025;-74
2022/09/02 04:25:53;;;;;;;7.35;3.75;;;;;;;;;;5037711;28;20025;-74
2022/09/02 04:28:19;;;;;;;9.52;4.25;;;;;;;;;;5033819;28;20080;-73
2022/09/02 04:30:46;;;;;;;9.07;4.28;;;;;;;;;;5037147;28;20425;-74
2022/09/02 04:33:12;;;;;;;8.80;3.83;;;;;;;;;;5017155;28;20087;-74
2022/09/02 04:35:42;;;;;;;12.77;3.78;;;;;;;;;;5022671;28;20599;-75
2022/09/02 04:38:08;;;;;;;10.50;4.18;;;;;;;;;;5021967;28;20470;-75
2022/09/02 04:40:35;;;;;;;12.00;3.97;;;;;;;;;;5034146;28;20025;-74
2022/09/02 04:43:01;;;;;;;10.32;4.00;;;;;;;;;;5016454;28;20612;-74
2022/09/02 04:45:28;;;;;;;14.57;4.18;;;;;;;;;;5033267;28;20473;-74
2022/09/02 04:47:54;;;;;;;17.17;4.72;;;;;;;;;;5041694;28;20028;-74
2022/09/02 04:50:20;;;;;;;17.08;5.00;;;;;;;;;;5019439;28;20043;-74
2022/09/02 04:52:46;;;;;;;10.00;5.07;;;;;;;;;;5019777;28;20433;-74
2022/09/02 04:55:12;;;;;;;13.90;4.90;;;;;;;;;;5019616;28;20112;-74
2022/09/02 04:57:38;;;;;;;9.90;4.22;;;;;;;;;;5038077;28;20083;-75
2022/09/02 05:00:06;;;;;;;12.38;4.72;;;;;;;;;;5038981;28;20485;-74
2022/09/02 05:02:32;;;;;;;10.60;4.20;;;;;;;;;;5038025;28;20021;-74
2022/09/02 05:04:59;;;;;;;10.07;4.22;;;;;;;;;;5038142;28;20485;-74
2022/09/02 05:07:25;;;;;;;9.27;4.28;;;;;;;;;;5038671;28;20124;-75
2022/09/02 05:09:55;;;;;;;10.50;4.55;;;;;;;;;;5024320;28;20384;-74
2022/09/02 05:12:26;;;;;;;11.47;4.57;;;;;;;;;;5032386;28;20505;-74
2022/09/02 05:14:53;;;;;;;10.32;5.38;;;;;;;;;;5023063;28;20020;-74
2022/09/02 05:17:19;;;;;;;12.85;4.53;;;;;;;;;;5034311;28;20033;-74
2022/09/02 05:19:45;;;;;;;14.18;4.90;;;;;;;;;;5039803;28;20025;-83
2022/09/02 05:22:12;;;;;;;11.27;5.53;;;;;;;;;;5039967;28;20021;-74
2022/09/02 05:24:38;;;;;;;11.68;5.43;;;;;;;;;;5034681;28;20589;-74
2022/09/02 05:27:04;;;;;;;12.93;5.95;;;;;;;;;;5033944;28;20460;-74
2022/09/02 05:29:30;;;;;;;11.55;5.82;;;;;;;;;;5043169;28;20095;-74
2022/09/02 05:31:56;;;;;;;16.10;6.00;;;;;;;;;;5037229;28;20048;-74
2022/09/02 05:34:23;;;;;;;13.15;6.22;;;;;;;;;;5038367;28;20021;-74
2022/09/02 05:36:49;;;;;;;12.00;5.63;;;;;;;;;;5018663;28;20363;-73
2022/09/02 05:39:15;;;;;;;11.98;5.70;;;;;;;;;;5040034;28;20079;-82
2022/09/02 05:41:41;;;;;;;14.38;6.18;;;;;;;;;;5021252;28;20096;-75
2022/09/02 05:44:08;;;;;;;18.52;6.65;;;;;;;;;;5037791;28;20039;-74
2022/09/02 05:46:34;;;;;;;14.45;6.45;;;;;;;;;;5040984;28;20105;-74
2022/09/02 05:49:16;;;;;;;14.43;6.47;;;;;;;;;;5038035;28;20335;-74
2022/09/02 05:51:42;;;;;;;15.50;6.78;;;;;;;;;;5038965;28;20037;-74
2022/09/02 05:54:10;;;;;;;15.40;7.13;;;;;;;;;;5038890;28;20029;-74
2022/09/02 05:56:40;;;;;;;15.85;7.90;;;;;;;;;;5038896;28;20028;-74
2022/09/02 05:59:07;;;;;;;15.73;8.57;;;;;;;;;;5040490;28;20472;-74
2022/09/02 06:01:34;;;;;;;13.02;8.00;;;;;;;;;;5018914;28;20679;-74
2022/09/02 06:04:01;;;;;;;13.75;7.82;;;;;;;;;;5037596;28;20021;-75
2022/09/02 06:06:28;;;;;;;13.63;7.55;;;;;;;;;;5043417;28;20041;-77
2022/09/02 06:08:54;;;;;;;11.32;6.75;;;;;;;;;;5026830;28;20697;-74
2022/09/02 06:11:21;;;;;;;13.85;5.80;;;;;;;;;;5034436;28;20037;-74
2022/09/02 06:13:47;;;;;;;10.43;4.18;;;;;;;;;;5040185;28;20025;-74
2022/09/02 06:16:18;;;;;;;11.35;3.97;;;;;;;;;;5040730;28;20303;-74
2022/09/02 06:18:45;;;;;;;11.57;4.47;;;;;;;;;;5038224;28;20028;-74
2022/09/02 06:21:12;;;;;;;9.63;4.03;;;;;;;;;;5041699;28;20110;-75
2022/09/02 06:23:39;;;;;;;9.48;3.97;;;;;;;;;;5043135;28;20025;-74
2022/09/02 06:26:06;;;;;;;8.95;3.42;;;;;;;;;;5041968;28;20021;-74
2022/09/02 06:28:32;;;;;;;15.73;4.80;;;;;;;;;;5037060;28;20073;-74
2022/09/02 06:30:58;;;;;;;9.18;3.70;;;;;;;;;;5032248;28;20037;-74
2022/09/02 06:33:25;;;;;;;12.60;4.30;;;;;;;;;;5041559;28;20021;-75
2022/09/02 06:35:51;;;;;;;15.10;4.88;;;;;;;;;;5043033;28;20229;-74
2022/09/02 06:38:19;;;;;;;17.83;4.63;;;;;;;;;;5036855;28;20179;-74
2022/09/02 06:40:53;;;;;;;14.70;4.32;;;;;;;;;;5042468;28;20052;-74
2022/09/02 06:43:19;;;;;;;12.32;4.20;;;;;;;;;;5038444;28;20015;-75
2022/09/02 06:45:46;;;;;;;8.75;4.60;;;;;;;;;;5034571;28;20025;-73
2022/09/02 06:48:13;;;;;;;6.72;3.72;;;;;;;;;;5034661;28;20109;-74
2022/09/02 06:50:43;;;;;;;11.63;3.75;;;;;;;;;;5033938;28;20041;-75
2022/09/02 06:53:10;;;;;;;13.20;4.93;;;;;;;;;;5041600;28;20144;-74
2022/09/02 06:55:42;;;;;;;16.52;4.15;;;;;;;;;;5039265;28;20370;-74
2022/09/02 06:58:09;;;;;;;10.23;4.38;;;;;;;;;;5040753;28;20096;-74
2022/09/02 07:00:35;;;;;;;9.65;4.20;;;;;;;;;;5039221;28;20111;-83
2022/09/02 07:05:47;;;;;;;10.90;3.90;;;;;;;;;;5040585;28;20488;-74
2022/09/02 07:08:13;;;;;;;8.90;3.88;;;;;;;;;;5041814;28;20033;-74
2022/09/02 07:10:40;;;;;;;8.90;3.85;;;;;;;;;;5038079;28;20025;-74
2022/09/02 07:13:07;;;;;;;12.43;3.88;;;;;;;;;;5041221;28;20031;-74
2022/09/02 07:15:34;;;;;;;8.98;4.30;;;;;;;;;;5038112;28;20469;-74
2022/09/02 07:18:00;;;;;;;13.27;4.13;;;;;;;;;;5041220;28;20049;-73
2022/09/02 07:20:26;;;;;;;13.02;3.85;;;;;;;;;;5040087;28;20433;-74
2022/09/02 07:22:54;;;;;;;12.38;3.80;;;;;;;;;;5035177;28;20122;-75
2022/09/02 07:25:21;;;;;;;11.32;4.45;;;;;;;;;;5031311;28;20021;-74
2022/09/02 07:27:50;;;;;;;8.77;4.40;;;;;;;;;;5033989;28;20024;-74
2022/09/02 07:30:16;;;;;;;8.13;3.83;;;;;;;;;;5042082;28;20393;-74
2022/09/02 07:32:42;;;;;;;8.80;3.85;;;;;;;;;;5042792;28;20511;-74
2022/09/02 07:35:09;;;;;;;14.38;4.53;;;;;;;;;;5039118;28;20059;-81
2022/09/02 07:37:35;;;;;;;6.95;3.85;;;;;;;;;;5032449;28;20021;-74
2022/09/02 07:40:03;;;;;;;11.10;4.07;;;;;;;;;;5035482;28;20025;-74
2022/09/02 07:42:29;;;;;;;13.15;4.63;;;;;;;;;;5041726;28;20071;-74
2022/09/02 07:44:56;;;;;;;8.02;3.28;;;;;;;;;;5036151;28;20021;-75
2022/09/02 07:47:22;;;;;;;12.65;3.83;;;;;;;;;;5034555;28;20017;-74
2022/09/02 07:49:48;;;;;;;7.35;3.67;;;;;;;;;;5042467;28;20110;-74
2022/09/02 07:52:15;;;;;;;7.63;3.78;;;;;;;;;;5038955;28;20025;-74
2022/09/02 07:54:41;;;;;;;13.23;4.63;;;;;;;;;;5042201;28;20024;-74
2022/09/02 07:57:08;;;;;;;9.43;4.30;;;;;;;;;;5039564;28;20100;-74
2022/09/02 07:59:34;;;;;;;11.48;4.15;;;;;;;;;;5039786;28;20461;-74
2022/09/02 08:02:01;;;;;;;11.52;4.50;;;;;;;;;;5037374;28;20029;-73
2022/09/02 08:04:27;;;;;;;11.65;3.83;;;;;;;;;;5040522;28;20405;-77
2022/09/02 08:06:54;;;;;;;9.52;3.58;;;;;;;;;;5041093;28;20135;-77
2022/09/02 08:09:21;;;;;;;17.80;5.25;;;;;;;;;;5039702;28;20029;-83
2022/09/02 08:11:48;;;;;;;11.18;4.40;;;;;;;;;;5039823;28;20099;-74
2022/09/02 08:14:17;;;;;;;7.65;3.60;;;;;;;;;;5043011;28;20013;-74
2022/09/02 08:16:44;;;;;;;9.90;4.32;;;;;;;;;;5016489;28;20444;-74
2022/09/02 08:19:11;;;;;;;9.07;3.92;;;;;;;;;;5041587;28;20484;-74
2022/09/02 08:21:37;;;;;;;10.25;4.00;;;;;;;;;;5035756;28;20053;-74
2022/09/02 08:24:04;;;;;;;6.45;3.50;;;;;;;;;;5041273;28;20017;-74
2022/09/02 08:26:30;;;;;;;7.38;3.53;;;;;;;;;;5037195;28;20104;-74
2022/09/02 08:28:57;;;;;;;4.45;3.15;;;;;;;;;;5038843;28;20024;-75
2022/09/02 08:31:23;;;;;;;9.32;4.28;;;;;;;;;;5039222;28;20040;-74
2022/09/02 08:33:49;;;;;;;11.05;4.00;;;;;;;;;;5037303;28;20040;-74
2022/09/02 08:36:16;;;;;;;7.82;4.20;;;;;;;;;;5035083;28;20033;-74
2022/09/02 08:38:43;;;;;;;9.50;3.78;;;;;;;;;;5038725;28;20535;-74
2022/09/02 08:41:36;;;;;;;10.43;3.83;;;;;;;;;;5038454;28;20052;-74
2022/09/02 08:44:04;;;;;;;10.60;4.47;;;;;;;;;;5001736;28;20046;-75
2022/09/02 08:46:31;;;;;;;9.02;4.40;;;;;;;;;;5039791;28;20088;-83
2022/09/02 08:49:21;;;;;;;11.40;4.10;;;;;;;;;;5019311;28;20052;-76
2022/09/02 08:51:50;;;;;;;9.23;3.65;;;;;;;;;;5039821;28;20025;-74
2022/09/02 08:54:19;;;;;;;7.78;3.85;;;;;;;;;;5039556;28;20051;-75
2022/09/02 08:56:47;;;;;;;9.18;4.00;;;;;;;;;;5037676;28;20560;-74
2022/09/02 08:59:14;;;;;;;10.20;4.28;;;;;;;;;;5033452;28;20029;-74
2022/09/02 09:02:01;;;;;;;10.00;3.85;;;;;;;;;;5036617;28;20025;-74
2022/09/02 09:04:30;;;;;;;7.80;4.05;;;;;;;;;;5035838;28;20028;-74
2022/09/02 09:07:06;;;;;;;9.25;3.53;;;;;;;;;;5035910;28;20049;-74
2022/09/02 09:09:39;;;;;;;7.10;3.63;;;;;;;;;;5041519;28;20105;-75
2022/09/02 09:12:12;;;;;;;7.85;3.80;;;;;;;;;;5037854;28;20071;-74
2022/09/02 09:14:44;;;;;;;10.15;3.92;;;;;;;;;;5036268;28;20490;-75
2022/09/02 09:17:32;;;;;;;10.73;4.15;;;;;;;;;;5039045;28;20112;-74
2022/09/02 09:20:05;;;;;;;8.55;4.20;;;;;;;;;;5035637;28;20044;-74
2022/09/02 09:22:36;;;;;;;10.15;3.90;;;;;;;;;;5038916;28;20025;-75
2022/09/02 09:25:03;;;;;;;7.80;4.57;;;;;;;;;;5039668;28;20477;-74
2022/09/02 09:27:29;;;;;;;6.10;3.25;;;;;;;;;;5039744;28;20316;-74
2022/09/02 09:29:55;;;;;;;7.07;3.88;;;;;;;;;;5034430;28;20024;-74
2022/09/02 09:32:27;;;;;;;8.52;4.22;;;;;;;;;;5037519;28;20021;-75
2022/09/02 09:34:55;;;;;;;8.80;4.25;;;;;;;;;;5037249;28;20489;-76
2022/09/02 09:37:41;;;;;;;7.28;3.78;;;;;;;;;;5041487;28;20021;-74
2022/09/02 09:40:19;;;;;;;4.97;3.88;;;;;;;;;;5033203;28;20040;-74
2022/09/02 09:42:46;;;;;;;10.80;4.00;;;;;;;;;;5036856;28;20020;-74
2022/09/02 09:45:21;;;;;;;6.38;4.40;;;;;;;;;;5036566;28;20103;-74
2022/09/02 09:48:07;;;;;;;4.63;3.45;;;;;;;;;;5017797;28;20472;-75
2022/09/02 09:50:34;;;;;;;8.98;4.43;;;;;;;;;;5038666;28;20175;-75
2022/09/02 09:53:26;;;;;;;15.10;4.82;;;;;;;;;;5038393;28;20013;-74
2022/09/02 09:55:57;;;;;;;8.77;3.95;;;;;;;;;;5031635;28;20549;-75
2022/09/02 09:58:27;;;;;;;12.73;4.35;;;;;;;;;;5023732;28;20025;-75
2022/09/02 10:00:59;;;;;;;7.97;3.78;;;;;;;;;;5038348;28;20083;-75
2022/09/02 10:03:27;;;;;;;5.72;3.90;;;;;;;;;;5038074;28;20025;-74
2022/09/02 10:05:55;;;;;;;7.80;3.75;;;;;;;;;;5023488;28;20591;-77
2022/09/02 10:08:22;;;;;;;6.95;3.63;;;;;;;;;;5035693;28;20035;-74
2022/09/02 10:11:02;;;;;;;7.20;3.70;;;;;;;;;;5034323;28;20108;-75
2022/09/02 10:13:32;;;;;;;7.38;3.40;;;;;;;;;;5033647;28;20160;-81
2022/09/02 10:16:10;;;;;;;5.13;3.45;;;;;;;;;;5034452;28;20021;-74
2022/09/02 10:18:51;;;;;;;8.45;3.85;;;;;;;;;;5037204;28;20527;-74
2022/09/02 10:21:17;;;;;;;;;;;;;;;;;;5039977;28;20120;-75
2022/09/02 10:23:43;;;;;;;8.73;4.30;;;;;;;;;;5040932;28;19996;-74
2022/09/02 10:26:19;;;;;;;11.65;3.88;;;;;;;;;;5033555;28;20105;-75
2022/09/02 10:28:45;;;;;;;7.93;3.85;;;;;;;;;;5017528;28;20125;-74
2022/09/02 10:31:27;;;;;;;7.57;3.70;;;;;;;;;;5038173;28;20029;-81
2022/09/02 10:34:02;;;;;;;7.20;3.75;;;;;;;;;;5031403;28;20021;-75
2022/09/02 10:36:35;;;;;;;8.93;4.03;;;;;;;;;;5031390;28;20045;-82
2022/09/02 10:39:24;;;;;;;7.82;3.90;;;;;;;;;;5034409;28;20021;-74
2022/09/02 10:41:55;;;;;;;9.60;4.05;;;;;;;;;;5038840;28;20036;-74
2022/09/02 10:44:28;;;;;;;5.88;3.30;;;;;;;;;;5038030;28;20033;-75
2022/09/02 10:50:29;;;;;;;6.35;4.05;;;;;;;;;;4700307;28;20120;-95
2022/09/02 10:53:08;;;;;;;8.77;3.75;;;;;;;;;;5072996;28;20507;-96
2022/09/02 10:55:53;;;;;;;5.22;3.40;;;;;;;;;;5062043;28;20045;-94
2022/09/02 10:58:24;;;;;;;6.03;3.30;;;;;;;;;;5051840;28;20123;-96
2022/09/02 11:00:52;;;;;;;4.53;3.50;;;;;;;;;;5050458;28;20021;-95
2022/09/02 11:03:38;;;;;;;5.93;3.70;;;;;;;;;;5051295;28;20033;-94
2022/09/02 11:06:09;;;;;;;6.03;3.50;;;;;;;;;;5051978;28;20730;-96
2022/09/02 11:08:40;;;;;;;4.30;3.20;;;;;;;;;;5048472;28;20029;-95
2022/09/02 11:11:06;;;;;;;4.90;3.40;;;;;;;;;;5048252;28;20033;-95
2022/09/02 11:13:51;;;;;;;3.88;3.20;;;;;;;;;;5050040;28;20681;-95
2022/09/02 11:16:37;;;;;;;5.97;3.40;;;;;;;;;;5043282;28;20040;-96
2022/09/02 11:19:13;;;;;;;6.20;3.67;;;;;;;;;;5050646;28;20070;-96
2022/09/02 11:21:48;;;;;;;3.60;3.30;;;;;;;;;;5048299;28;20039;-93
2022/09/02 11:24:17;;;;;;;5.57;3.22;;;;;;;;;;5047826;28;20115;-96
2022/09/02 11:26:56;;;;;;;5.53;3.40;;;;;;;;;;5049259;28;20025;-94
2022/09/02 11:29:48;;;;;;;7.90;3.30;;;;;;;;;;5048964;28;20031;-94
2022/09/02 11:32:18;;;;;;;7.03;3.80;;;;;;;;;;5017945;28;20048;-96
2022/09/02 11:34:49;;;;;;;4.25;3.35;;;;;;;;;;5053435;28;20031;-96
2022/09/02 11:37:24;;;;;;;6.15;3.83;;;;;;;;;;5046098;28;20127;-95
2022/09/02 11:39:56;;;;;;;5.97;3.55;;;;;;;;;;5050295;28;20025;-94
2022/09/02 11:42:36;;;;;;;7.10;3.22;;;;;;;;;;5049470;28;20025;-95
2022/09/02 11:45:21;;;;;;;3.58;3.10;;;;;;;;;;5053141;28;20082;-95
2022/09/02 11:48:08;;;;;;;7.50;3.30;;;;;;;;;;5047967;28;20032;-95
2022/09/02 11:50:34;;;;;;;7.53;3.55;;;;;;;;;;5049877;28;20040;-96
2022/09/02 11:53:16;;;;;;;6.55;3.33;;;;;;;;;;5051227;28;20078;-95
2022/09/02 11:55:42;;;;;;;;;;;;;;;;;;5045193;28;20024;-96
2022/09/02 11:58:08;;;;;;;6.30;3.15;;;;;;;;;;5047026;28;19909;-94
2022/09/02 12:00:36;;;;;;;4.78;3.00;;;;;;;;;;5040904;28;20491;-94
2022/09/02 12:03:12;;;;;;;3.30;3.00;;;;;;;;;;5050626;28;20060;-96
2022/09/02 12:05:38;;;;;;;6.00;3.72;;;;;;;;;;5046677;28;20032;-94
2022/09/02 12:08:11;;;;;;;5.65;3.25;;;;;;;;;;5049439;28;20025;-93
2022/09/02 12:10:47;;;;;;;6.22;3.38;;;;;;;;;;5039462;28;20052;-95
2022/09/02 12:13:32;;;;;;;4.32;3.00;;;;;;;;;;5039736;28;20675;-96
2022/09/02 12:16:22;;;;;;;5.25;3.38;;;;;;;;;;5043297;28;20048;-95
2022/09/02 12:18:56;;;;;;;5.28;3.83;;;;;;;;;;5041040;28;20040;-95
2022/09/02 12:21:22;;;;;;;8.70;3.67;;;;;;;;;;5049819;28;20109;-96
2022/09/02 12:23:49;;;;;;;4.82;3.00;;;;;;;;;;5041990;28;20036;-96
2022/09/02 12:26:16;;;;;;;4.75;3.03;;;;;;;;;;5047428;28;20028;-96
2022/09/02 12:28:46;;;;;;;5.18;3.22;;;;;;;;;;5031312;28;20100;-96
2022/09/02 12:31:17;;;;;;;4.50;3.38;;;;;;;;;;5035885;28;20037;-96
2022/09/02 12:33:48;;;;;;;5.63;3.08;;;;;;;;;;5038828;28;20032;-96
2022/09/02 12:36:34;;;;;;;7.57;2.95;;;;;;;;;;5044134;28;20078;-96
2022/09/02 12:39:19;;;;;;;4.78;3.63;;;;;;;;;;5039969;28;20051;-96
2022/09/02 12:41:49;;;;;;;3.83;2.90;;;;;;;;;;5051207;28;20498;-95
2022/09/02 12:44:34;;;;;;;4.05;2.80;;;;;;;;;;5037451;28;20528;-96
2022/09/02 12:47:10;;;;;;;6.55;3.35;;;;;;;;;;5036717;28;20024;-95
2022/09/02 12:49:40;;;;;;;6.40;2.78;;;;;;;;;;5044476;28;20033;-96
2022/09/02 12:52:29;;;;;;;4.72;3.35;;;;;;;;;;5043225;28;20033;-96
2022/09/02 12:54:56;;;;;;;3.83;2.95;;;;;;;;;;5038388;28;20106;-96
2022/09/02 12:57:37;;;;;;;3.30;3.00;;;;;;;;;;5049949;28;20106;-95
2022/09/02 13:00:03;;;;;;;;;;;;;;;;;;5050652;28;20027;-94
2022/09/02 13:02:29;;;;;;;4.28;2.90;;;;;;;;;;5049328;28;19904;-94
2022/09/02 13:05:06;;;;;;;4.60;3.20;;;;;;;;;;5051628;28;20060;-95
2022/09/02 13:07:50;;;;;;;4.97;3.03;;;;;;;;;;5046566;28;20024;-94
2022/09/02 13:10:32;;;;;;;3.83;2.90;;;;;;;;;;5050147;28;20105;-94
2022/09/02 13:13:07;;;;;;;5.38;3.25;;;;;;;;;;5047700;28;20021;-94
2022/09/02 13:15:40;;;;;;;4.32;3.08;;;;;;;;;;5045722;28;20602;-94
2022/09/02 13:18:29;;;;;;;7.03;3.10;;;;;;;;;;5047146;28;20063;-95
2022/09/02 13:20:55;;;;;;;6.28;3.30;;;;;;;;;;5041619;28;20052;-96
2022/09/02 13:23:31;;;;;;;4.68;2.90;;;;;;;;;;5047641;28;20020;-94
2022/09/02 13:26:06;;;;;;;6.15;3.00;;;;;;;;;;5061753;28;20056;-94
2022/09/02 13:28:51;;;;;;;6.60;3.10;;;;;;;;;;5046818;28;20017;-95
2022/09/02 13:31:20;;;;;;;5.10;3.10;;;;;;;;;;5046761;28;20101;-95
2022/09/02 13:33:48;;;;;;;3.97;2.63;;;;;;;;;;5048820;28;20048;-94
2022/09/02 13:36:22;;;;;;;5.53;3.08;;;;;;;;;;5050960;28;20025;-95
2022/09/02 13:38:48;;;;;;;3.45;2.92;;;;;;;;;;5045185;28;20025;-93
2022/09/02 13:41:27;;;;;;;3.15;2.85;;;;;;;;;;5043682;28;21467;-94
2022/09/02 13:44:07;;;;;;;3.05;2.70;;;;;;;;;;5047054;28;20070;-96
2022/09/02 13:46:34;;;;;;;5.38;3.30;;;;;;;;;;5050561;28;20067;-95
2022/09/02 13:49:00;;;;;;;4.10;2.90;;;;;;;;;;5046468;28;20116;-95
2022/09/02 13:51:26;;;;;;;5.60;3.53;;;;;;;;;;5047184;28;20055;-96
2022/09/02 13:53:52;;;;;;;5.15;3.15;;;;;;;;;;5034713;28;20025;-94
2022/09/02 13:56:23;;;;;;;6.57;2.75;;;;;;;;;;5042874;28;20411;-96
2022/09/02 13:58:57;;;;;;;4.47;2.92;;;;;;;;;;5043667;28;20052;-96
2022/09/02 14:01:31;;;;;;;6.00;2.97;;;;;;;;;;5035243;28;20506;-96
2022/09/02 14:04:01;;;;;;;3.50;2.85;;;;;;;;;;5046636;28;20059;-96
2022/09/02 14:06:35;;;;;;;5.65;3.00;;;;;;;;;;5039279;28;20218;-96
2022/09/02 14:09:02;;;;;;;3.03;2.55;;;;;;;;;;5049911;28;20025;-96
2022/09/02 14:11:38;;;;;;;4.30;2.90;;;;;;;;;;5044270;28;20021;-95
2022/09/02 14:14:05;;;;;;;4.70;3.00;;;;;;;;;;5047762;28;20132;-96
2022/09/02 14:16:32;;;;;;;6.15;3.05;;;;;;;;;;5049740;28;20488;-96
2022/09/02 14:19:09;;;;;;;5.93;3.00;;;;;;;;;;5049023;28;20051;-96
2022/09/02 14:21:37;;;;;;;5.57;3.13;;;;;;;;;;5068234;28;20070;-95
2022/09/02 14:24:04;;;;;;;5.10;3.20;;;;;;;;;;5040703;28;20059;-96
2022/09/02 14:26:37;;;;;;;4.40;3.13;;;;;;;;;;5049516;28;20487;-96
2022/09/02 14:29:07;;;;;;;5.00;3.20;;;;;;;;;;5045241;28;20090;-95
2022/09/02 14:31:36;;;;;;;5.03;2.63;;;;;;;;;;5047726;28;20033;-96
2022/09/02 14:34:05;;;;;;;6.70;3.25;;;;;;;;;;5052509;28;20029;-96
2022/09/02 14:36:31;;;;;;;4.03;3.17;;;;;;;;;;5051678;28;20035;-94
2022/09/02 14:39:08;;;;;;;9.38;2.90;;;;;;;;;;5049746;28;20058;-95
2022/09/02 14:41:35;;;;;;;4.50;2.92;;;;;;;;;;5063174;28;20051;-96
2022/09/02 14:44:12;;;;;;;6.65;2.92;;;;;;;;;;5050385;28;20063;-96
2022/09/02 14:46:43;;;;;;;5.65;3.03;;;;;;;;;;5046387;28;20075;-95
2022/09/02 14:49:09;;;;;;;;;;;;;;;;;;5048365;28;20024;-96
2022/09/02 14:51:45;;;;;;;7.03;3.45;;;;;;;;;;5051720;28;19985;-95
2022/09/02 14:54:11;;;;;;;5.70;3.13;;;;;;;;;;5054482;28;20063;-95
2022/09/02 14:56:46;;;;;;;4.13;3.00;;;;;;;;;;5047348;28;20024;-95
2022/09/02 14:59:13;;;;;;;3.63;2.90;;;;;;;;;;5038946;28;20028;-95
2022/09/02 15:01:45;;;;;;;5.25;3.17;;;;;;;;;;5051204;28;20035;-96